Time,TemperatureF,DewpointF,PressureIn,WindDirection,WindDirectionDegrees,WindSpeedMPH,WindSpeedGustMPH,Humidity,HourlyPrecipIn,Conditions,Clouds,dailyrainin,SoftwareType,DateUTC
2013-05-01 00:14:00,47.9,46.0,29.91,NE,52,3.0,6.0,92,0.00,,,0.00,weatherlink.com 1.10,2013-05-01 04:14:00,
2013-05-01 00:29:00,49.2,47.0,29.91,ENE,68,7.0,7.0,92,0.00,,,0.00,weatherlink.com 1.10,2013-05-01 04:29:00,
2013-05-01 00:45:00,49.8,48.0,29.91,ENE,65,4.0,7.0,92,0.00,,,0.00,weatherlink.com 1.10,2013-05-01 04:45:00,
2013-05-01 01:00:00,50.1,48.0,29.92,ENE,68,4.0,5.0,91,0.00,,,0.00,weatherlink.com 1.10,2013-05-01 05:00:00,
2013-05-01 01:15:00,49.6,47.0,29.92,NE,37,3.0,6.0,91,0.00,,,0.00,weatherlink.com 1.10,2013-05-01 05:15:00,
2013-05-01 01:30:00,49.3,47.0,29.92,NE,34,3.0,7.0,92,0.00,,,0.00,weatherlink.com 1.10,2013-05-01 05:30:00,
2013-05-01 01:45:00,49.7,48.0,29.92,ENE,72,4.0,7.0,92,0.00,,,0.00,weatherlink.com 1.10,2013-05-01 05:45:00,
2013-05-01 02:00:00,50.1,48.0,29.92,ENE,66,4.0,6.0,92,0.00,,,0.00,weatherlink.com 1.10,2013-05-01 06:00:00,
2013-05-01 02:15:00,50.4,48.0,29.93,ENE,76,2.0,5.0,92,0.00,,,0.00,weatherlink.com 1.10,2013-05-01 06:15:00,
2013-05-01 02:30:00,50.7,49.0,29.93,ENE,71,1.0,5.0,92,0.00,,,0.00,weatherlink.com 1.10,2013-05-01 06:30:00,
2013-05-01 02:45:00,51.6,49.0,29.93,East,79,3.0,5.0,92,0.00,,,0.00,weatherlink.com 1.10,2013-05-01 06:45:00,
2013-05-01 03:00:00,52.6,50.0,29.94,East,79,3.0,5.0,92,0.00,,,0.00,weatherlink.com 1.10,2013-05-01 07:00:00,
2013-05-01 03:15:00,53.6,51.0,29.94,East,83,2.0,3.0,91,0.00,,,0.00,weatherlink.com 1.10,2013-05-01 07:15:00,
2013-05-01 03:30:00,54.8,52.0,29.94,East,85,0.0,2.0,91,0.00,,,0.00,weatherlink.com 1.10,2013-05-01 07:30:00,
2013-05-01 03:45:00,57.7,55.0,29.94,SE,143,1.0,6.0,92,0.00,,,0.00,weatherlink.com 1.10,2013-05-01 07:45:00,
2013-05-01 04:00:00,59.8,57.0,29.95,SE,125,3.0,8.0,89,0.00,,,0.00,weatherlink.com 1.10,2013-05-01 08:00:00,
2013-05-01 04:15:00,59.8,56.0,29.96,SSE,149,2.0,7.0,88,0.00,,,0.00,weatherlink.com 1.10,2013-05-01 08:15:00,
2013-05-01 04:30:00,59.0,56.0,29.96,ESE,110,1.0,2.0,88,0.00,,,0.00,weatherlink.com 1.10,2013-05-01 08:30:00,
2013-05-01 04:45:00,57.1,54.0,29.98,East,82,0.0,1.0,90,0.00,,,0.00,weatherlink.com 1.10,2013-05-01 08:45:00,
2013-05-01 05:00:00,54.9,52.0,29.98,NNW,342,0.0,3.0,88,0.00,,,0.00,weatherlink.com 1.10,2013-05-01 09:00:00,
2013-05-01 05:15:00,50.8,48.0,29.99,NNE,13,2.0,3.0,91,0.00,,,0.00,weatherlink.com 1.10,2013-05-01 09:15:00,
2013-05-01 05:30:00,49.6,47.0,30.00,ENE,63,0.0,2.0,92,0.00,,,0.00,weatherlink.com 1.10,2013-05-01 09:30:00,
2013-05-01 05:46:00,48.9,47.0,30.01,ESE,105,0.0,1.0,92,0.00,,,0.00,weatherlink.com 1.10,2013-05-01 09:46:00,
2013-05-01 06:01:00,48.8,47.0,30.02,NNE,25,0.0,4.0,92,0.00,,,0.00,weatherlink.com 1.10,2013-05-01 10:01:00,
2013-05-01 06:16:00,48.1,46.0,30.02,NNE,26,2.0,2.0,92,0.00,,,0.00,weatherlink.com 1.10,2013-05-01 10:16:00,
2013-05-01 06:31:00,47.5,45.0,30.02,ENE,70,3.0,3.0,92,0.00,,,0.00,weatherlink.com 1.10,2013-05-01 10:31:00,
2013-05-01 06:46:00,46.5,44.0,30.03,East,79,3.0,3.0,92,0.00,,,0.00,weatherlink.com 1.10,2013-05-01 10:46:00,
2013-05-01 07:01:00,45.9,44.0,30.04,NE,34,0.0,6.0,92,0.00,,,0.00,weatherlink.com 1.10,2013-05-01 11:01:00,
2013-05-01 07:16:00,45.5,44.0,30.04,NE,54,3.0,3.0,93,0.00,,,0.00,weatherlink.com 1.10,2013-05-01 11:16:00,
2013-05-01 07:31:00,45.2,43.0,30.05,East,79,0.0,3.0,93,0.00,,,0.00,weatherlink.com 1.10,2013-05-01 11:31:00,
2013-05-01 07:46:00,45.4,44.0,30.05,ENE,72,1.0,3.0,93,0.00,,,0.00,weatherlink.com 1.10,2013-05-01 11:46:00,
2013-05-01 08:01:00,46.4,45.0,30.05,ENE,70,2.0,5.0,93,0.00,,,0.00,weatherlink.com 1.10,2013-05-01 12:01:00,
2013-05-01 08:16:00,48.0,46.0,30.06,ENE,67,3.0,3.0,92,0.00,,,0.00,weatherlink.com 1.10,2013-05-01 12:16:00,
2013-05-01 08:31:00,49.4,47.0,30.06,ENE,72,2.0,6.0,91,0.00,,,0.00,weatherlink.com 1.10,2013-05-01 12:31:00,
2013-05-01 08:46:00,51.2,48.0,30.06,East,82,3.0,5.0,90,0.00,,,0.00,weatherlink.com 1.10,2013-05-01 12:46:00,
2013-05-01 09:01:00,53.1,49.0,30.07,ENE,65,3.0,5.0,87,0.00,,,0.00,weatherlink.com 1.10,2013-05-01 13:01:00,
2013-05-01 09:16:00,54.2,50.0,30.08,ENE,72,2.0,6.0,85,0.00,,,0.00,weatherlink.com 1.10,2013-05-01 13:16:00,
2013-05-01 09:31:00,56.0,51.0,30.09,ESE,108,1.0,5.0,83,0.00,,,0.00,weatherlink.com 1.10,2013-05-01 13:31:00,
2013-05-01 09:46:00,58.2,52.0,30.09,ENE,74,1.0,5.0,80,0.00,,,0.00,weatherlink.com 1.10,2013-05-01 13:46:00,
2013-05-01 10:01:00,60.1,53.0,30.09,East,98,7.0,7.0,77,0.00,,,0.00,weatherlink.com 1.10,2013-05-01 14:01:00,
2013-05-01 10:16:00,61.3,53.0,30.09,East,79,3.0,7.0,75,0.00,,,0.00,weatherlink.com 1.10,2013-05-01 14:16:00,
2013-05-01 10:31:00,62.2,53.0,30.09,ENE,71,4.0,8.0,73,0.00,,,0.00,weatherlink.com 1.10,2013-05-01 14:31:00,
2013-05-01 10:46:00,63.3,54.0,30.09,ENE,70,3.0,7.0,72,0.00,,,0.00,weatherlink.com 1.10,2013-05-01 14:46:00,
2013-05-01 11:01:00,64.0,54.0,30.09,ENE,65,2.0,7.0,69,0.00,,,0.00,weatherlink.com 1.10,2013-05-01 15:01:00,
2013-05-01 11:16:00,63.7,53.0,30.10,ENE,64,3.0,6.0,68,0.00,,,0.00,weatherlink.com 1.10,2013-05-01 15:16:00,
2013-05-01 11:31:00,63.6,53.0,30.11,NNE,18,4.0,6.0,68,0.00,,,0.00,weatherlink.com 1.10,2013-05-01 15:31:00,
2013-05-01 11:46:00,63.5,53.0,30.12,ENE,70,6.0,7.0,68,0.00,,,0.00,weatherlink.com 1.10,2013-05-01 15:46:00,
2013-05-01 12:01:00,62.8,53.0,30.12,ENE,61,2.0,5.0,70,0.00,,,0.00,weatherlink.com 1.10,2013-05-01 16:01:00,
2013-05-01 12:16:00,64.1,54.0,30.12,NNW,342,4.0,7.0,69,0.00,,,0.00,weatherlink.com 1.10,2013-05-01 16:16:00,
2013-05-01 12:31:00,64.3,54.0,30.12,NE,48,7.0,7.0,69,0.00,,,0.00,weatherlink.com 1.10,2013-05-01 16:31:00,
2013-05-01 12:47:00,64.3,55.0,30.13,ENE,68,8.0,8.0,71,0.00,,,0.00,weatherlink.com 1.10,2013-05-01 16:47:00,
2013-05-01 13:02:00,65.1,55.0,30.13,East,92,2.0,7.0,70,0.00,,,0.00,weatherlink.com 1.10,2013-05-01 17:02:00,
2013-05-01 13:17:00,68.1,58.0,30.12,ENE,66,5.0,6.0,69,0.00,,,0.00,weatherlink.com 1.10,2013-05-01 17:17:00,
2013-05-01 13:32:00,69.4,57.0,30.12,East,85,5.0,7.0,64,0.00,,,0.00,weatherlink.com 1.10,2013-05-01 17:32:00,
2013-05-01 13:47:00,69.9,57.0,30.12,East,79,5.0,7.0,64,0.00,,,0.00,weatherlink.com 1.10,2013-05-01 17:47:00,
2013-05-01 14:02:00,71.0,58.0,30.12,East,81,5.0,6.0,63,0.00,,,0.00,weatherlink.com 1.10,2013-05-01 18:02:00,
2013-05-01 14:17:00,72.3,58.0,30.12,ENE,70,4.0,7.0,60,0.00,,,0.00,weatherlink.com 1.10,2013-05-01 18:17:00,
2013-05-01 14:32:00,72.8,58.0,30.12,East,97,5.0,9.0,61,0.00,,,0.00,weatherlink.com 1.10,2013-05-01 18:32:00,
2013-05-01 14:47:00,70.7,58.0,30.13,NNE,15,7.0,10.0,64,0.00,,,0.00,weatherlink.com 1.10,2013-05-01 18:47:00,
2013-05-01 15:02:00,70.8,58.0,30.13,East,81,6.0,8.0,64,0.00,,,0.00,weatherlink.com 1.10,2013-05-01 19:02:00,
2013-05-01 15:17:00,70.7,58.0,30.14,East,99,3.0,10.0,64,0.00,,,0.00,weatherlink.com 1.10,2013-05-01 19:17:00,
2013-05-01 15:32:00,70.5,58.0,30.15,ESE,108,1.0,8.0,64,0.00,,,0.00,weatherlink.com 1.10,2013-05-01 19:32:00,
2013-05-01 15:47:00,69.8,57.0,30.15,ENE,57,7.0,8.0,64,0.00,,,0.00,weatherlink.com 1.10,2013-05-01 19:47:00,
2013-05-01 16:02:00,69.6,57.0,30.15,East,81,2.0,9.0,64,0.00,,,0.00,weatherlink.com 1.10,2013-05-01 20:02:00,
2013-05-01 16:17:00,70.6,57.0,30.15,North,11,2.0,6.0,62,0.00,,,0.00,weatherlink.com 1.10,2013-05-01 20:17:00,
2013-05-01 16:32:00,70.2,56.0,30.15,NW,305,2.0,7.0,62,0.00,,,0.00,weatherlink.com 1.10,2013-05-01 20:32:00,
2013-05-01 16:47:00,70.6,56.0,30.15,NNW,340,1.0,8.0,61,0.00,,,0.00,weatherlink.com 1.10,2013-05-01 20:47:00,
2013-05-01 17:02:00,71.1,57.0,30.15,North,349,1.0,8.0,61,0.00,,,0.00,weatherlink.com 1.10,2013-05-01 21:02:00,
2013-05-01 17:17:00,71.3,57.0,30.15,NE,41,6.0,7.0,62,0.00,,,0.00,weatherlink.com 1.10,2013-05-01 21:17:00,
2013-05-01 17:32:00,71.6,54.0,30.15,NW,322,2.0,8.0,54,0.00,,,0.00,weatherlink.com 1.10,2013-05-01 21:32:00,
2013-05-01 17:47:00,68.1,49.0,30.15,NNW,344,6.0,10.0,50,0.00,,,0.00,weatherlink.com 1.10,2013-05-01 21:47:00,
2013-05-01 18:02:00,65.9,47.0,30.16,NNE,32,5.0,12.0,50,0.00,,,0.00,weatherlink.com 1.10,2013-05-01 22:02:00,
2013-05-01 18:17:00,64.3,45.0,30.16,North,6,4.0,12.0,50,0.00,,,0.00,weatherlink.com 1.10,2013-05-01 22:17:00,
2013-05-01 18:32:00,63.4,45.0,30.16,NNW,334,8.0,12.0,52,0.00,,,0.00,weatherlink.com 1.10,2013-05-01 22:32:00,
2013-05-01 18:47:00,62.4,44.0,30.17,NNW,342,12.0,14.0,51,0.00,,,0.00,weatherlink.com 1.10,2013-05-01 22:47:00,
2013-05-01 19:02:00,60.4,43.0,30.18,WNW,284,3.0,12.0,53,0.00,,,0.00,weatherlink.com 1.10,2013-05-01 23:02:00,
2013-05-01 19:17:00,58.9,43.0,30.18,NW,311,4.0,17.0,55,0.00,,,0.00,weatherlink.com 1.10,2013-05-01 23:17:00,
2013-05-01 19:32:00,57.0,42.0,30.18,NNW,329,5.0,13.0,57,0.00,,,0.00,weatherlink.com 1.10,2013-05-01 23:32:00,
2013-05-01 19:47:00,55.2,42.0,30.19,NNW,336,7.0,14.0,61,0.00,,,0.00,weatherlink.com 1.10,2013-05-01 23:47:00,
2013-05-01 20:02:00,53.2,41.0,30.19,NNW,328,6.0,13.0,63,0.00,,,0.00,weatherlink.com 1.10,2013-05-02 00:02:00,
2013-05-01 20:17:00,51.0,40.0,30.20,NW,322,6.0,14.0,65,0.00,,,0.00,weatherlink.com 1.10,2013-05-02 00:17:00,
2013-05-01 20:32:00,49.9,40.0,30.20,NNE,33,1.0,13.0,68,0.00,,,0.00,weatherlink.com 1.10,2013-05-02 00:32:00,
2013-05-01 20:47:00,49.1,39.0,30.22,WNW,302,7.0,14.0,68,0.00,,,0.00,weatherlink.com 1.10,2013-05-02 00:47:00,
2013-05-01 21:02:00,48.3,39.0,30.22,NNW,333,4.0,13.0,69,0.00,,,0.00,weatherlink.com 1.10,2013-05-02 01:02:00,
2013-05-01 21:18:00,47.0,38.0,30.23,NW,319,7.0,15.0,70,0.00,,,0.00,weatherlink.com 1.10,2013-05-02 01:18:00,
2013-05-01 21:33:00,45.5,37.0,30.24,NNW,342,3.0,15.0,73,0.00,,,0.00,weatherlink.com 1.10,2013-05-02 01:33:00,
2013-05-01 21:48:00,44.4,37.0,30.24,NW,307,4.0,13.0,76,0.00,,,0.00,weatherlink.com 1.10,2013-05-02 01:48:00,
2013-05-01 22:03:00,43.8,37.0,30.25,West,276,2.0,12.0,78,0.00,,,0.00,weatherlink.com 1.10,2013-05-02 02:03:00,
2013-05-01 22:18:00,43.2,37.0,30.25,NNW,338,10.0,12.0,79,0.00,,,0.00,weatherlink.com 1.10,2013-05-02 02:18:00,
2013-05-01 22:33:00,43.0,37.0,30.25,NW,305,7.0,10.0,79,0.00,,,0.00,weatherlink.com 1.10,2013-05-02 02:33:00,
2013-05-01 22:48:00,42.9,37.0,30.25,NW,316,8.0,14.0,80,0.00,,,0.00,weatherlink.com 1.10,2013-05-02 02:48:00,
2013-05-01 23:03:00,42.6,37.0,30.25,NNW,330,8.0,15.0,81,0.00,,,0.00,weatherlink.com 1.10,2013-05-02 03:03:00,
2013-05-01 23:18:00,42.4,37.0,30.25,West,270,6.0,14.0,81,0.00,,,0.00,weatherlink.com 1.10,2013-05-02 03:18:00,
2013-05-01 23:33:00,42.2,37.0,30.25,West,277,8.0,14.0,82,0.00,,,0.00,weatherlink.com 1.10,2013-05-02 03:33:00,
2013-05-01 23:48:00,42.1,37.0,30.25,WNW,291,1.0,12.0,82,0.00,,,0.00,weatherlink.com 1.10,2013-05-02 03:48:00,